Time;durP1;ratioP1;P1;durP2;ratioP2;P2;SDS_P1;SDS_P2;PMS_P1;PMS_P2;Temp;Humidity;BMP_temperature;BMP_pressure;BME280_temperature;BME280_humidity;BME280_pressure;Samples;Min_cycle;Max_cycle;Signal;HPM_P1;HPM_P2
2023/07/08 00:02:13;;;;;;;5.27;3.23;;;18.00;99.90;;;;;;5039298;28;20614;-80
2023/07/08 00:04:40;;;;;;;3.73;3.37;;;17.80;99.90;;;;;;5057153;28;20165;-80
2023/07/08 00:07:10;;;;;;;4.47;3.53;;;17.50;99.90;;;;;;5057557;28;20169;-80
2023/07/08 00:09:35;;;;;;;4.30;3.43;;;17.50;99.90;;;;;;5056725;28;20225;-76
2023/07/08 00:12:01;;;;;;;3.47;2.93;;;17.50;99.90;;;;;;5039267;28;20181;-80
2023/07/08 00:14:27;;;;;;;5.17;3.23;;;17.50;99.90;;;;;;5039200;28;20795;-79
2023/07/08 00:16:52;;;;;;;3.90;3.30;;;17.50;99.90;;;;;;5039680;28;20170;-80
2023/07/08 00:19:19;;;;;;;3.77;3.37;;;17.30;1.00;;;;;;5057211;28;20176;-80
2023/07/08 00:21:45;;;;;;;4.23;3.50;;;17.20;1.00;;;;;;5038004;28;20754;-77
2023/07/08 00:24:12;;;;;;;5.00;3.50;;;17.10;99.90;;;;;;5057100;28;20625;-79
2023/07/08 00:26:38;;;;;;;3.67;3.10;;;17.10;1.00;;;;;;5057381;28;20179;-80
2023/07/08 00:29:10;;;;;;;3.83;3.10;;;17.10;99.90;;;;;;5056919;28;20229;-79
2023/07/08 00:31:35;;;;;;;5.20;3.10;;;17.00;1.00;;;;;;5038001;28;20190;-79
2023/07/08 00:34:03;;;;;;;3.87;3.27;;;17.00;1.00;;;;;;5038491;28;20571;-80
2023/07/08 00:36:29;;;;;;;4.57;3.33;;;16.90;1.00;;;;;;5038677;28;20632;-80
2023/07/08 00:38:55;;;;;;;3.97;3.43;;;16.80;1.00;;;;;;5056263;28;20165;-80
2023/07/08 00:41:25;;;;;;;4.20;3.40;;;16.60;99.90;;;;;;5055674;28;20268;-79
2023/07/08 00:43:53;;;;;;;4.60;3.60;;;16.80;1.00;;;;;;5055782;28;20190;-80
2023/07/08 00:46:27;;;;;;;3.43;3.13;;;16.60;1.00;;;;;;5056513;28;20197;-80
2023/07/08 00:49:08;;;;;;;3.80;3.23;;;16.70;1.00;;;;;;5038411;28;20201;-80
2023/07/08 00:51:38;;;;;;;4.27;3.20;;;16.70;1.00;;;;;;5055379;28;20170;-80
2023/07/08 00:54:14;;;;;;;4.80;3.37;;;16.70;1.00;;;;;;5037962;28;20660;-80
2023/07/08 00:56:49;;;;;;;4.87;3.43;;;16.60;1.00;;;;;;5056326;28;20157;-80
2023/07/08 00:59:38;;;;;;;3.67;3.17;;;16.70;1.00;;;;;;5055942;28;20311;-79
2023/07/08 01:02:08;;;;;;;3.93;3.50;;;16.90;1.00;;;;;;5055919;28;20626;-80
2023/07/08 01:04:42;;;;;;;3.67;3.20;;;16.90;1.00;;;;;;5056012;28;20219;-80
2023/07/08 01:07:08;;;;;;;3.47;3.10;;;16.70;1.00;;;;;;5055725;28;20609;-80
2023/07/08 01:09:38;;;;;;;4.50;3.50;;;16.80;1.00;;;;;;5055779;28;20284;-79
2023/07/08 01:12:08;;;;;;;4.33;3.27;;;16.60;1.00;;;;;;5038437;28;20544;-80
2023/07/08 01:14:35;;;;;;;4.73;3.40;;;16.70;1.00;;;;;;5037625;28;20616;-80
2023/07/08 01:17:01;;;;;;;4.93;3.33;;;16.70;1.00;;;;;;5055302;28;20181;-80
2023/07/08 01:19:34;;;;;;;4.67;3.73;;;16.80;1.00;;;;;;5055718;28;20162;-80
2023/07/08 01:22:04;;;;;;;5.30;3.57;;;16.80;1.00;;;;;;5055421;28;20174;-79
2023/07/08 01:24:32;;;;;;;5.27;3.40;;;16.70;1.00;;;;;;5055797;28;20204;-80
2023/07/08 01:26:59;;;;;;;4.43;3.30;;;16.60;1.00;;;;;;5037417;28;20272;-80
2023/07/08 01:29:25;;;;;;;3.63;3.20;;;16.40;99.90;;;;;;5055619;28;20197;-80
2023/07/08 01:31:51;;;;;;;3.93;3.50;;;16.50;37.60;;;;;;5036701;28;20193;-80
2023/07/08 01:34:17;;;;;;;4.10;3.47;;;16.40;99.90;;;;;;5054955;28;20208;-79
2023/07/08 01:36:47;;;;;;;5.17;3.23;;;16.10;1.00;;;;;;5037558;28;20663;-79
2023/07/08 01:39:17;;;;;;;4.43;3.30;;;16.10;1.00;;;;;;5037346;28;20185;-79
2023/07/08 01:41:44;;;;;;;3.97;3.20;;;15.90;1.00;;;;;;5054540;28;20188;-79
2023/07/08 01:44:23;;;;;;;4.37;3.37;;;15.90;1.00;;;;;;5037200;28;20197;-80
2023/07/08 01:46:52;;;;;;;5.00;3.17;;;15.90;1.00;;;;;;5037034;28;20628;-79
2023/07/08 01:49:18;;;;;;;3.93;3.37;;;15.80;1.00;;;;;;5054874;28;20204;-80
2023/07/08 01:51:44;;;;;;;5.43;3.57;;;16.00;1.00;;;;;;5054623;28;20201;-79
2023/07/08 01:54:09;;;;;;;3.87;3.33;;;16.00;1.00;;;;;;5054949;28;20209;-80
2023/07/08 01:56:35;;;;;;;4.90;3.37;;;15.90;1.00;;;;;;5037551;28;20540;-80
2023/07/08 01:59:00;;;;;;;6.17;3.73;;;15.70;1.00;;;;;;5037440;28;20594;-80
2023/07/08 02:01:26;;;;;;;4.97;3.70;;;15.60;26.10;;;;;;5054056;28;20177;-79
2023/07/08 02:03:51;;;;;;;4.30;3.40;;;15.60;99.90;;;;;;5037108;28;20193;-80
2023/07/08 02:06:17;;;;;;;6.40;3.57;;;15.60;99.90;;;;;;5054724;28;20180;-79
2023/07/08 02:08:43;;;;;;;4.00;3.60;;;15.50;99.90;;;;;;5054583;28;20169;-80
2023/07/08 02:11:08;;;;;;;4.23;3.40;;;15.40;1.00;;;;;;5036510;28;20184;-79
2023/07/08 02:13:34;;;;;;;4.10;3.30;;;15.50;99.90;;;;;;5036580;28;20193;-79
2023/07/08 02:15:59;;;;;;;5.00;3.50;;;15.50;99.90;;;;;;5054882;28;20209;-80
2023/07/08 02:18:25;;;;;;;4.40;3.33;;;15.50;99.90;;;;;;5054385;28;20219;-80
2023/07/08 02:20:50;;;;;;;5.73;3.40;;;15.50;1.00;;;;;;5054070;28;20230;-79
2023/07/08 02:23:16;;;;;;;6.00;3.60;;;15.70;99.90;;;;;;5036438;28;20283;-80
2023/07/08 02:25:49;;;;;;;5.07;3.43;;;15.80;55.70;;;;;;5054759;28;20201;-80
2023/07/08 02:28:15;;;;;;;4.10;3.40;;;15.90;1.00;;;;;;5054750;28;20640;-79
2023/07/08 02:30:40;;;;;;;4.20;3.30;;;15.80;1.00;;;;;;5036134;28;20205;-80
2023/07/08 02:33:06;;;;;;;3.53;2.57;;;15.60;1.00;;;;;;5036420;28;20200;-79
2023/07/08 02:35:32;;;;;;;74.50;30.47;;;15.40;99.90;;;;;;5036823;28;20219;-79
2023/07/08 02:37:57;;;;;;;165.93;134.97;;;15.20;1.00;;;;;;5054760;28;20223;-80
2023/07/08 02:40:25;;;;;;;5.40;3.60;;;15.40;1.00;;;;;;5035776;28;20268;-79
2023/07/08 02:42:50;;;;;;;3.63;3.20;;;15.30;1.00;;;;;;5054082;28;20209;-79
2023/07/08 02:45:17;;;;;;;5.20;3.40;;;15.40;99.90;;;;;;5039601;28;20180;-80
2023/07/08 02:47:43;;;;;;;4.70;3.63;;;15.40;1.00;;;;;;5058253;28;20185;-80
2023/07/08 02:50:10;;;;;;;4.20;3.30;;;15.40;99.90;;;;;;5039790;28;20338;-79
2023/07/08 02:52:36;;;;;;;4.77;3.30;;;15.30;1.00;;;;;;5040034;28;20209;-79
2023/07/08 02:55:02;;;;;;;3.83;3.43;;;15.30;1.00;;;;;;5058323;28;20185;-80
2023/07/08 02:57:28;;;;;;;5.87;3.83;;;15.20;1.00;;;;;;5039779;28;20169;-80
2023/07/08 02:59:53;;;;;;;4.57;3.77;;;15.20;1.00;;;;;;5039518;28;20184;-79
2023/07/08 03:02:21;;;;;;;5.37;3.60;;;15.00;30.20;;;;;;5040421;28;20202;-79
2023/07/08 03:04:46;;;;;;;3.77;3.37;;;14.90;49.20;;;;;;5058325;28;20201;-79
2023/07/08 03:07:13;;;;;;;3.77;3.37;;;15.00;1.00;;;;;;5057555;28;20166;-80
2023/07/08 03:09:39;;;;;;;4.83;3.77;;;14.80;1.00;;;;;;5039809;28;20202;-79
2023/07/08 03:12:07;;;;;;;4.70;3.70;;;14.90;99.90;;;;;;5057915;28;20202;-79
2023/07/08 03:14:32;;;;;;;4.10;3.17;;;15.00;38.70;;;;;;5039743;28;20180;-79
2023/07/08 03:16:58;;;;;;;4.77;3.80;;;15.00;99.90;;;;;;5058009;28;20174;-80
2023/07/08 03:19:23;;;;;;;3.93;3.53;;;14.80;99.90;;;;;;5039870;28;20231;-80
2023/07/08 03:21:49;;;;;;;5.13;3.97;;;14.80;1.00;;;;;;5056725;28;20262;-79
2023/07/08 03:24:17;;;;;;;4.20;3.60;;;14.70;1.00;;;;;;5040285;28;20268;-79
2023/07/08 03:26:44;;;;;;;5.00;3.70;;;14.80;1.00;;;;;;5057789;28;20173;-79
2023/07/08 03:29:14;;;;;;;5.30;3.70;;;15.00;80.80;;;;;;5057099;28;20664;-79
2023/07/08 03:31:40;;;;;;;6.53;3.60;;;14.90;99.90;;;;;;5038922;28;20636;-80
2023/07/08 03:34:17;;;;;;;5.10;3.67;;;14.80;99.90;;;;;;5057673;28;20196;-80
2023/07/08 03:36:50;;;;;;;4.63;3.60;;;14.60;99.90;;;;;;5057596;28;20165;-79
2023/07/08 03:39:17;;;;;;;5.07;3.67;;;14.60;1.00;;;;;;5039796;28;20196;-79
2023/07/08 03:41:44;;;;;;;4.50;3.77;;;14.80;1.00;;;;;;5039093;28;20181;-78
2023/07/08 03:44:09;;;;;;;4.83;3.90;;;15.00;99.90;;;;;;5039449;28;20198;-80
2023/07/08 03:46:35;;;;;;;4.53;3.77;;;15.00;99.90;;;;;;5039447;28;20173;-80
2023/07/08 03:49:00;;;;;;;4.33;3.70;;;15.00;99.90;;;;;;5039283;28;20232;-79
2023/07/08 03:51:35;;;;;;;4.27;3.50;;;15.00;99.90;;;;;;5056704;28;20166;-79
2023/07/08 03:54:01;;;;;;;5.23;3.87;;;14.90;99.90;;;;;;5057218;28;20742;-80
2023/07/08 03:56:26;;;;;;;4.77;3.67;;;14.60;1.00;;;;;;5038671;28;20200;-80
2023/07/08 03:58:52;;;;;;;4.53;3.90;;;14.50;1.00;;;;;;5056889;28;20181;-80
2023/07/08 04:01:23;;;;;;;4.93;3.70;;;14.40;65.00;;;;;;5038378;28;20170;-80
2023/07/08 04:03:54;;;;;;;5.07;3.90;;;14.40;99.90;;;;;;5056725;28;20197;-80
2023/07/08 04:06:21;;;;;;;4.73;3.67;;;14.40;1.00;;;;;;5056491;28;20200;-79
2023/07/08 04:08:46;;;;;;;4.10;3.70;;;14.50;99.90;;;;;;5038928;28;20192;-80
2023/07/08 04:11:15;;;;;;;4.93;3.83;;;14.50;1.00;;;;;;5038316;28;20237;-79
2023/07/08 04:13:41;;;;;;;4.53;3.87;;;14.40;1.00;;;;;;5056478;28;20676;-79
2023/07/08 04:16:08;;;;;;;5.33;3.73;;;14.40;1.00;;;;;;5038743;28;20177;-79
2023/07/08 04:18:33;;;;;;;5.43;4.07;;;14.40;1.00;;;;;;5038547;28;20197;-80
2023/07/08 04:20:59;;;;;;;6.00;3.67;;;14.40;92.70;;;;;;5056363;28;20165;-79
2023/07/08 04:23:25;;;;;;;4.33;3.83;;;14.20;99.90;;;;;;5056256;28;20190;-79
2023/07/08 04:25:56;;;;;;;4.87;3.70;;;14.10;13.50;;;;;;5038610;28;20227;-79
2023/07/08 04:28:21;;;;;;;5.20;3.60;;;14.10;1.00;;;;;;5046195;28;20178;-78
2023/07/08 04:30:48;;;;;;;3.77;3.37;;;14.20;1.00;;;;;;5033473;28;20204;-78
2023/07/08 04:33:14;;;;;;;5.80;3.90;;;14.20;99.90;;;;;;5034107;28;20193;-77
2023/07/08 04:35:41;;;;;;;4.93;3.47;;;14.30;99.90;;;;;;5016646;28;20178;-79
2023/07/08 04:38:27;;;;;;;4.60;3.63;;;14.40;1.00;;;;;;5033925;28;20200;-78
2023/07/08 04:40:53;;;;;;;4.57;3.90;;;14.50;1.00;;;;;;5015575;28;20273;-77
2023/07/08 04:43:21;;;;;;;5.00;3.83;;;14.60;99.90;;;;;;5016374;28;20198;-77
2023/07/08 04:45:51;;;;;;;6.33;4.40;;;14.70;99.90;;;;;;5016122;28;20174;-76
2023/07/08 04:48:20;;;;;;;5.47;4.50;;;14.80;99.90;;;;;;5034089;28;20166;-77
2023/07/08 04:50:48;;;;;;;4.40;4.00;;;15.00;1.00;;;;;;5033479;28;20699;-77
2023/07/08 04:53:15;;;;;;;5.67;3.97;;;15.10;1.00;;;;;;5015689;28;20213;-77
2023/07/08 04:55:51;;;;;;;4.27;3.87;;;15.10;1.00;;;;;;5015983;28;20179;-78
2023/07/08 04:58:16;;;;;;;5.80;4.43;;;15.30;1.00;;;;;;5033950;28;20151;-78
2023/07/08 05:00:42;;;;;;;5.60;4.50;;;15.30;1.00;;;;;;5015539;28;20177;-78
2023/07/08 05:03:07;;;;;;;7.70;4.40;;;15.30;99.90;;;;;;5033266;28;20194;-78
2023/07/08 05:05:33;;;;;;;5.60;4.67;;;15.30;1.00;;;;;;5018961;28;20185;-78
2023/07/08 05:08:00;;;;;;;5.20;4.50;;;15.40;99.90;;;;;;5053310;28;20201;-78
2023/07/08 05:10:26;;;;;;;5.53;4.60;;;15.40;99.90;;;;;;5052881;28;20213;-78
2023/07/08 05:12:51;;;;;;;6.67;4.77;;;15.40;1.00;;;;;;5053232;28;20711;-78
2023/07/08 05:15:17;;;;;;;6.10;4.30;;;15.40;1.00;;;;;;5051898;28;20173;-78
2023/07/08 05:17:43;;;;;;;4.93;4.43;;;15.50;1.00;;;;;;5052145;28;20174;-77
2023/07/08 05:20:13;;;;;;;5.10;4.30;;;15.50;1.00;;;;;;5051693;28;20181;-78
2023/07/08 05:22:39;;;;;;;6.27;4.57;;;15.60;1.00;;;;;;5053258;28;20193;-77
2023/07/08 05:25:05;;;;;;;6.00;4.50;;;15.60;45.80;;;;;;5052822;28;20177;-77
2023/07/08 05:27:33;;;;;;;4.70;3.77;;;15.60;1.00;;;;;;5052948;28;20181;-76
2023/07/08 05:30:00;;;;;;;5.60;4.40;;;15.70;1.00;;;;;;5051568;28;20296;-76
2023/07/08 05:32:27;;;;;;;5.80;4.77;;;16.10;1.00;;;;;;5051638;28;20695;-76
2023/07/08 05:34:52;;;;;;;5.60;4.60;;;16.20;99.90;;;;;;5051542;28;20174;-74
2023/07/08 05:37:21;;;;;;;6.07;4.60;;;16.20;1.00;;;;;;5052817;28;20165;-76
2023/07/08 05:39:46;;;;;;;5.33;4.00;;;16.30;99.90;;;;;;5052270;28;20165;-76
2023/07/08 05:42:12;;;;;;;5.10;4.53;;;16.50;99.90;;;;;;5051223;28;20216;-75
2023/07/08 05:44:38;;;;;;;5.33;4.53;;;16.80;1.00;;;;;;5052806;28;20173;-75
2023/07/08 05:47:03;;;;;;;5.03;4.40;;;16.90;1.00;;;;;;5052819;28;20178;-75
2023/07/08 05:49:29;;;;;;;6.60;5.23;;;17.00;99.90;;;;;;5052589;28;20216;-75
2023/07/08 05:51:54;;;;;;;5.90;4.50;;;17.10;99.90;;;;;;5050714;28;20223;-75
2023/07/08 05:54:20;;;;;;;6.90;4.77;;;17.10;99.90;;;;;;5052269;28;20181;-76
2023/07/08 05:56:45;;;;;;;6.97;5.03;;;17.30;99.90;;;;;;5052607;28;20173;-75
2023/07/08 05:59:11;;;;;;;6.63;4.93;;;17.60;99.90;;;;;;5051573;28;20186;-75
2023/07/08 06:01:37;;;;;;;5.27;4.70;;;17.60;1.00;;;;;;5051288;28;20177;-76
2023/07/08 06:04:03;;;;;;;6.00;4.77;;;17.70;72.90;;;;;;5051604;28;20195;-77
2023/07/08 06:06:29;;;;;;;5.80;4.83;;;17.80;1.00;;;;;;5051591;28;20170;-77
2023/07/08 06:08:54;;;;;;;6.00;4.80;;;17.70;1.00;;;;;;5052179;28;20540;-77
2023/07/08 06:11:21;;;;;;;6.03;5.30;;;17.90;99.90;;;;;;5052074;28;20169;-77
2023/07/08 06:13:47;;;;;;;6.60;5.10;;;18.10;99.90;;;;;;5034556;28;20196;-77
2023/07/08 06:16:13;;;;;;;9.97;5.00;;;18.10;99.90;;;;;;5052466;28;20177;-75
2023/07/08 06:18:38;;;;;;;6.63;4.93;;;18.30;99.90;;;;;;5035387;28;20170;-75
2023/07/08 06:21:05;;;;;;;5.50;4.60;;;18.30;99.90;;;;;;5038350;28;20216;-75
2023/07/08 06:23:30;;;;;;;6.37;4.40;;;18.50;99.90;;;;;;5038785;28;20202;-76
2023/07/08 06:25:56;;;;;;;5.73;4.47;;;18.70;99.90;;;;;;5056796;28;20162;-76
2023/07/08 06:28:22;;;;;;;10.03;4.73;;;18.80;1.00;;;;;;5039553;28;20172;-76
2023/07/08 06:30:49;;;;;;;5.23;4.07;;;18.90;99.90;;;;;;5039346;28;20690;-76
2023/07/08 06:33:14;;;;;;;6.77;4.03;;;19.00;99.90;;;;;;5057582;28;20189;-76
2023/07/08 06:35:41;;;;;;;4.77;3.77;;;19.10;99.90;;;;;;5039698;28;20169;-76
2023/07/08 06:38:07;;;;;;;5.60;4.50;;;19.30;1.00;;;;;;5039894;28;20173;-76
2023/07/08 06:40:34;;;;;;;5.20;4.20;;;19.40;1.00;;;;;;5056433;28;20216;-74
2023/07/08 06:43:00;;;;;;;18.77;3.83;;;19.60;1.00;;;;;;5056385;28;20666;-76
2023/07/08 06:45:25;;;;;;;5.10;4.10;;;19.60;1.00;;;;;;5039421;28;20235;-76
2023/07/08 06:47:51;;;;;;;4.78;3.90;;;19.80;1.00;;;;;;5038759;28;20220;-76
2023/07/08 06:50:17;;;;;;;6.55;4.35;;;19.90;1.00;;;;;;5037827;28;20198;-77
2023/07/08 06:52:42;;;;;;;4.30;3.72;;;20.00;1.00;;;;;;5038919;28;20217;-76
2023/07/08 06:55:10;;;;;;;4.95;4.03;;;20.10;1.00;;;;;;5038906;28;20216;-77
2023/07/08 06:57:38;;;;;;;5.70;3.92;;;20.20;99.90;;;;;;5038795;28;20205;-77
2023/07/08 07:00:06;;;;;;;6.25;4.40;;;20.40;99.90;;;;;;5055881;28;20212;-77
2023/07/08 07:02:31;;;;;;;4.47;4.00;;;20.60;99.90;;;;;;5056659;28;20204;-77
2023/07/08 07:04:57;;;;;;;4.97;4.25;;;20.70;99.90;;;;;;5056935;28;20166;-77
2023/07/08 07:07:22;;;;;;;4.72;4.22;;;20.80;99.90;;;;;;5038339;28;20169;-77
2023/07/08 07:09:48;;;;;;;6.97;4.25;;;21.00;99.90;;;;;;5055709;28;20219;-77
2023/07/08 07:12:13;;;;;;;4.72;3.70;;;21.10;99.90;;;;;;5038467;28;20193;-77
2023/07/08 07:14:39;;;;;;;4.90;4.05;;;21.20;99.90;;;;;;5056164;28;20166;-77
2023/07/08 07:17:05;;;;;;;4.60;4.00;;;21.30;99.90;;;;;;5038413;28;20182;-78
2023/07/08 07:19:30;;;;;;;4.88;4.25;;;21.40;99.90;;;;;;5038397;28;20555;-75
2023/07/08 07:21:56;;;;;;;5.30;4.05;;;21.50;30.20;;;;;;5056026;28;20174;-77
2023/07/08 07:24:21;;;;;;;4.45;4.05;;;21.60;99.90;;;;;;5038163;28;20177;-77
2023/07/08 07:26:47;;;;;;;48.42;7.55;;;21.70;99.90;;;;;;5038107;28;20185;-77
2023/07/08 07:29:16;;;;;;;6.80;4.35;;;21.90;99.90;;;;;;5038529;28;20608;-77
2023/07/08 07:31:42;;;;;;;4.75;4.10;;;22.00;99.90;;;;;;5037609;28;20267;-78
2023/07/08 07:34:08;;;;;;;5.68;4.22;;;22.10;99.90;;;;;;5038043;28;20654;-77
2023/07/08 07:36:34;;;;;;;5.47;4.30;;;22.20;1.30;;;;;;5038310;28;20180;-78
2023/07/08 07:38:59;;;;;;;4.72;4.10;;;22.40;99.90;;;;;;5038407;28;20174;-78
2023/07/08 07:41:25;;;;;;;5.10;4.18;;;22.50;99.90;;;;;;5037664;28;20203;-78
2023/07/08 07:43:51;;;;;;;5.60;4.13;;;22.50;1.00;;;;;;5038285;28;20201;-78
2023/07/08 07:46:16;;;;;;;5.47;4.28;;;22.60;99.90;;;;;;5055668;28;20181;-78
2023/07/08 07:48:42;;;;;;;4.80;4.25;;;22.60;1.00;;;;;;5037419;28;20177;-78
2023/07/08 07:51:10;;;;;;;4.63;4.07;;;22.70;1.00;;;;;;5050468;28;20178;-78
2023/07/08 07:53:39;;;;;;;5.25;4.25;;;22.80;1.00;;;;;;5054299;28;20247;-78
2023/07/08 07:56:05;;;;;;;4.75;4.05;;;22.90;45.80;;;;;;5055565;28;20212;-78
2023/07/08 07:58:31;;;;;;;4.93;4.22;;;22.90;99.90;;;;;;5054400;28;20170;-78
2023/07/08 08:00:56;;;;;;;6.85;3.85;;;23.00;1.00;;;;;;5054603;28;20178;-78
2023/07/08 08:03:23;;;;;;;6.13;4.30;;;23.00;1.00;;;;;;5055165;28;20201;-78
2023/07/08 08:05:49;;;;;;;6.75;4.45;;;23.20;99.90;;;;;;5054241;28;20176;-78
2023/07/08 08:08:15;;;;;;;5.00;4.35;;;23.30;92.00;;;;;;5054609;28;20177;-79
2023/07/08 08:10:42;;;;;;;4.45;3.80;;;23.30;1.00;;;;;;5055523;28;20586;-79
2023/07/08 08:13:08;;;;;;;5.15;4.20;;;23.40;1.00;;;;;;5055888;28;20207;-77
2023/07/08 08:15:34;;;;;;;4.45;4.05;;;23.60;1.00;;;;;;5055944;28;20611;-78
2023/07/08 08:18:00;;;;;;;4.30;3.70;;;23.90;1.00;;;;;;5056309;28;20243;-78
2023/07/08 08:20:25;;;;;;;4.47;3.47;;;24.00;99.90;;;;;;5055597;28;20265;-79
2023/07/08 08:22:51;;;;;;;4.28;3.60;;;24.10;99.90;;;;;;5055950;28;20221;-79
2023/07/08 08:25:19;;;;;;;4.22;3.80;;;24.20;1.00;;;;;;5054633;28;20265;-78
2023/07/08 08:27:45;;;;;;;4.35;3.60;;;24.40;1.00;;;;;;5054522;28;20227;-78
2023/07/08 08:30:11;;;;;;;4.88;3.92;;;24.50;1.00;;;;;;5055223;28;20205;-78
2023/07/08 08:32:37;;;;;;;4.03;3.45;;;24.80;1.00;;;;;;5054501;28;20194;-78
2023/07/08 08:35:03;;;;;;;4.05;3.42;;;25.00;1.00;;;;;;5054644;28;20629;-78
2023/07/08 08:37:28;;;;;;;4.43;3.45;;;25.20;1.00;;;;;;5054144;28;20166;-78
2023/07/08 08:39:54;;;;;;;4.90;3.63;;;25.40;99.90;;;;;;5053639;28;20181;-78
2023/07/08 08:42:27;;;;;;;165.73;16.85;;;25.70;99.90;;;;;;5055003;28;20205;-78
2023/07/08 08:44:57;;;;;;;15.50;12.00;;;26.00;99.90;;;;;;5055622;28;20249;-78
2023/07/08 08:47:37;;;;;;;177.75;12.25;;;26.30;99.90;;;;;;5054029;28;20559;-78
2023/07/08 08:50:24;;;;;;;3.80;3.22;;;26.80;99.90;;;;;;5053493;28;20221;-78
2023/07/08 08:52:50;;;;;;;4.32;3.60;;;27.00;99.90;;;;;;5053706;28;20209;-78
2023/07/08 08:55:16;;;;;;;3.47;3.17;;;27.20;99.90;;;;;;5053745;28;20172;-78
2023/07/08 08:58:00;;;;;;;4.15;3.13;;;27.20;99.90;;;;;;5055190;28;20182;-78
2023/07/08 09:00:54;;;;;;;4.18;3.10;;;27.20;99.90;;;;;;5054398;28;20165;-78
2023/07/08 09:03:25;;;;;;;5.50;3.45;;;27.10;99.90;;;;;;5053281;28;20571;-78
2023/07/08 09:05:51;;;;;;;5.53;3.72;;;27.00;99.90;;;;;;5053330;28;20174;-79
2023/07/08 09:08:27;;;;;;;3.80;3.40;;;27.00;99.90;;;;;;5053252;28;20178;-78
2023/07/08 09:11:28;;;;;;;4.65;3.38;;;27.00;99.90;;;;;;5053812;28;20190;-78
2023/07/08 09:13:54;;;;;;;3.65;3.25;;;26.90;99.90;;;;;;5046237;28;20714;-78
2023/07/08 09:16:31;;;;;;;3.40;3.10;;;26.90;99.90;;;;;;5054476;28;20177;-78
2023/07/08 09:19:08;;;;;;;4.05;3.33;;;26.80;99.90;;;;;;5053325;28;20675;-78
2023/07/08 09:21:53;;;;;;;3.80;3.30;;;26.90;99.90;;;;;;5054038;28;20166;-78
2023/07/08 09:24:34;;;;;;;3.97;3.15;;;27.10;99.90;;;;;;5053154;28;20173;-78
2023/07/08 09:27:01;;;;;;;5.95;3.20;;;27.30;99.90;;;;;;5053232;28;20569;-78
2023/07/08 09:29:28;;;;;;;3.53;3.20;;;27.60;99.90;;;;;;5054169;28;20189;-78
2023/07/08 09:31:53;;;;;;;4.00;3.40;;;27.80;95.00;;;;;;5053599;28;20624;-78
2023/07/08 09:34:23;;;;;;;4.05;3.10;;;28.10;81.10;;;;;;5052808;28;20194;-78
2023/07/08 09:36:50;;;;;;;4.45;3.15;;;28.40;61.20;;;;;;5053703;28;20174;-79
2023/07/08 09:39:18;;;;;;;3.97;3.08;;;28.60;55.20;;;;;;5055074;28;20253;-78
2023/07/08 09:41:46;;;;;;;3.58;3.10;;;28.70;43.90;;;;;;5053463;28;20223;-78
2023/07/08 09:44:17;;;;;;;3.92;3.20;;;28.80;35.20;;;;;;5054181;28;20197;-78
2023/07/08 09:46:43;;;;;;;4.18;3.20;;;28.90;25.80;;;;;;5054542;28;20181;-78
2023/07/08 09:49:22;;;;;;;4.55;3.35;;;29.10;22.80;;;;;;5052779;28;20308;-79
2023/07/08 09:51:50;;;;;;;65.35;7.25;;;29.30;19.80;;;;;;5054022;28;20176;-78
2023/07/08 09:54:17;;;;;;;3.95;3.42;;;29.30;15.10;;;;;;5052925;28;20204;-76
2023/07/08 09:56:49;;;;;;;4.15;3.30;;;29.30;7.50;;;;;;5052700;28;20264;-78
2023/07/08 09:59:15;;;;;;;3.50;3.00;;;29.40;6.50;;;;;;5052671;28;20223;-79
2023/07/08 10:01:42;;;;;;;3.83;3.33;;;29.50;3.40;;;;;;5053537;28;20174;-78
2023/07/08 10:04:08;;;;;;;3.97;3.50;;;29.60;1.00;;;;;;5052531;28;20539;-79
2023/07/08 10:06:35;;;;;;;4.20;3.17;;;29.70;1.00;;;;;;5054217;28;20220;-78
2023/07/08 10:09:18;;;;;;;3.97;3.15;;;29.80;1.00;;;;;;5052209;28;20555;-79
2023/07/08 10:11:52;;;;;;;3.90;2.95;;;29.90;1.00;;;;;;5053302;28;20188;-85
2023/07/08 10:14:26;;;;;;;3.53;3.22;;;29.70;1.00;;;;;;5054390;28;20173;-78
2023/07/08 10:16:51;;;;;;;4.10;3.15;;;29.90;1.00;;;;;;5052856;28;20189;-78
2023/07/08 10:19:19;;;;;;;5.38;3.10;;;30.00;1.00;;;;;;5053796;28;20166;-78
2023/07/08 10:21:59;;;;;;;3.08;2.78;;;29.80;1.00;;;;;;5052629;28;20180;-81
2023/07/08 10:24:33;;;;;;;3.28;2.97;;;30.00;1.00;;;;;;5053099;28;20162;-79
2023/07/08 10:27:23;;;;;;;3.83;3.03;;;30.50;1.00;;;;;;5054578;28;20161;-79
2023/07/08 10:30:22;;;;;;;5.47;3.28;;;30.90;1.00;;;;;;5050710;28;20293;-80
2023/07/08 10:33:14;;;;;;;3.53;3.13;;;31.30;1.00;;;;;;5054676;28;20656;-79
2023/07/08 10:35:54;;;;;;;4.07;3.25;;;31.40;1.00;;;;;;5054054;28;20160;-76
2023/07/08 10:38:57;;;;;;;3.92;3.53;;;31.40;1.00;;;;;;5015979;28;20162;-77
2023/07/08 10:41:51;;;;;;;3.53;3.17;;;31.20;1.00;;;;;;5015810;28;20177;-76
2023/07/08 10:44:58;;;;;;;3.95;3.42;;;30.90;1.00;;;;;;5016721;28;20265;-77
2023/07/08 10:47:56;;;;;;;4.38;3.22;;;30.90;1.00;;;;;;5012650;28;20179;-77
2023/07/08 10:50:33;;;;;;;4.20;3.22;;;31.40;1.00;;;;;;4962466;28;20221;-77
2023/07/08 10:53:20;;;;;;;3.90;3.20;;;31.20;1.00;;;;;;5016213;28;20563;-76
2023/07/08 10:56:01;;;;;;;3.78;3.05;;;31.30;1.00;;;;;;5016151;28;20708;-77
2023/07/08 10:58:58;;;;;;;4.40;3.38;;;31.70;1.00;;;;;;5015967;28;20261;-76
2023/07/08 11:01:48;;;;;;;4.25;3.42;;;31.70;1.00;;;;;;5032736;28;20234;-76
2023/07/08 11:04:33;;;;;;;3.97;3.05;;;31.70;1.00;;;;;;5033761;28;20167;-76
2023/07/08 11:07:31;;;;;;;3.78;3.30;;;31.90;1.00;;;;;;5019191;28;20194;-77
2023/07/08 11:10:02;;;;;;;5.65;3.70;;;32.20;1.00;;;;;;5017969;28;20274;-77
2023/07/08 11:13:00;;;;;;;3.65;3.35;;;32.50;1.00;;;;;;5037015;28;20187;-77
2023/07/08 11:15:48;;;;;;;4.70;3.30;;;32.20;1.00;;;;;;5001741;28;20189;-77
2023/07/08 11:18:42;;;;;;;4.30;3.17;;;31.80;1.00;;;;;;5037515;28;20163;-76
2023/07/08 11:21:21;;;;;;;3.55;3.20;;;31.50;1.00;;;;;;5018769;28;20163;-76
2023/07/08 11:24:13;;;;;;;3.92;3.33;;;31.90;1.00;;;;;;5037051;28;20306;-77
2023/07/08 11:26:57;;;;;;;3.72;3.25;;;32.40;1.00;;;;;;5036228;28;20637;-77
2023/07/08 11:29:24;;;;;;;4.47;3.65;;;32.70;1.00;;;;;;5046775;28;20197;-77
2023/07/08 11:31:54;;;;;;;3.58;3.28;;;33.00;1.00;;;;;;5044537;28;20180;-76
2023/07/08 11:34:21;;;;;;;3.90;3.50;;;33.10;1.00;;;;;;5056690;28;20694;-77
2023/07/08 11:36:49;;;;;;;4.07;3.67;;;33.00;1.00;;;;;;5056059;28;20212;-76
2023/07/08 11:39:31;;;;;;;4.10;3.33;;;32.80;1.00;;;;;;5038114;28;20625;-77
2023/07/08 11:42:10;;;;;;;4.78;3.15;;;32.80;1.00;;;;;;5055417;28;20280;-76
2023/07/08 11:44:42;;;;;;;3.53;3.22;;;33.30;1.00;;;;;;5038154;28;20173;-77
2023/07/08 11:47:54;;;;;;;4.43;3.40;;;33.80;1.00;;;;;;5056066;28;20162;-77
2023/07/08 11:50:32;;;;;;;3.90;3.50;;;33.90;1.00;;;;;;5036661;28;20212;-77
2023/07/08 11:53:02;;;;;;;4.25;3.20;;;34.10;1.00;;;;;;5103081;22;20223;-83
2023/07/08 11:55:55;;;;;;;4.70;3.60;;;34.00;1.00;;;;;;5123251;28;20191;-82
2023/07/08 11:58:24;;;;;;;3.97;3.40;;;34.00;1.00;;;;;;5123386;28;20171;-81
2023/07/08 12:01:24;;;;;;;3.97;2.95;;;34.00;1.00;;;;;;5121862;28;20198;-84
2023/07/08 12:03:58;;;;;;;3.75;3.30;;;34.00;1.00;;;;;;5124482;28;20192;-82
2023/07/08 12:06:27;;;;;;;4.00;3.60;;;34.00;1.00;;;;;;5124806;28;20170;-83
2023/07/08 12:08:57;;;;;;;4.30;3.33;;;34.10;1.00;;;;;;5123723;28;20159;-82
2023/07/08 12:11:34;;;;;;;3.50;3.20;;;34.30;1.00;;;;;;5128423;28;20164;-82
2023/07/08 12:14:03;;;;;;;3.95;3.17;;;34.40;1.00;;;;;;5127881;28;20187;-82
2023/07/08 12:16:31;;;;;;;3.45;2.85;;;34.20;1.00;;;;;;5120725;28;20590;-81
2023/07/08 12:18:58;;;;;;;4.25;3.50;;;34.50;1.00;;;;;;5122396;28;20217;-82
2023/07/08 12:21:27;;;;;;;3.70;3.30;;;34.50;1.00;;;;;;5121122;28;20172;-82
2023/07/08 12:23:54;;;;;;;4.88;3.40;;;34.80;1.00;;;;;;5122077;28;20192;-82
2023/07/08 12:26:21;;;;;;;3.78;3.30;;;34.80;1.00;;;;;;5120456;28;20225;-83
2023/07/08 12:28:47;;;;;;;3.58;3.22;;;34.80;1.00;;;;;;5121269;28;20175;-82
2023/07/08 12:31:19;;;;;;;5.05;3.20;;;34.80;1.00;;;;;;5123592;28;20215;-83
2023/07/08 12:33:45;;;;;;;3.92;3.20;;;34.30;1.00;;;;;;5124442;28;20278;-82
2023/07/08 12:36:17;;;;;;;3.83;3.35;;;34.00;1.00;;;;;;5122497;28;20176;-82
2023/07/08 12:38:47;;;;;;;4.78;3.22;;;34.20;1.00;;;;;;5123012;28;20254;-83
2023/07/08 12:41:23;;;;;;;4.07;3.03;;;34.40;1.00;;;;;;5123461;28;20172;-82
2023/07/08 12:43:49;;;;;;;5.05;3.47;;;34.70;1.00;;;;;;5122669;28;20751;-82
2023/07/08 12:46:18;;;;;;;4.07;3.03;;;34.80;1.00;;;;;;5124732;28;20194;-82
2023/07/08 12:48:44;;;;;;;4.60;3.38;;;34.90;1.00;;;;;;5125619;28;20171;-82
2023/07/08 12:51:15;;;;;;;4.10;3.53;;;34.90;1.00;;;;;;5122202;28;20210;-82
2023/07/08 12:53:42;;;;;;;3.60;3.20;;;34.80;1.00;;;;;;5123065;28;20236;-82
2023/07/08 12:56:08;;;;;;;4.60;3.30;;;35.10;1.00;;;;;;5123427;28;20176;-82
2023/07/08 12:58:39;;;;;;;4.78;3.10;;;35.20;1.00;;;;;;5125535;28;20164;-83
2023/07/08 13:01:06;;;;;;;7.30;3.10;;;34.60;1.00;;;;;;5126067;28;20178;-82
2023/07/08 13:03:37;;;;;;;3.38;3.08;;;34.80;1.00;;;;;;5124421;28;20192;-82
2023/07/08 13:06:03;;;;;;;6.68;3.30;;;34.80;1.00;;;;;;5125539;28;20199;-82
2023/07/08 13:08:35;;;;;;;3.42;3.13;;;34.60;1.00;;;;;;5126416;28;20172;-83